Flight Track Log - Related Links

Times and Time Zones

All times are in EDT time to prevent confusion due to time zone crossing. See the JBU1049 flight status page for this flight to view local times or setup timezone preferences in your user account.

Time Position Orientation Groundspeed Altitude Reporting Facility
EDT Latitude Longitude Course Direction KTS MPH feet Rate Location/Type
Fri 11:01:57 PM 26.0770 -80.1210 84° East 153 176 1,400  Level FlightAware ADS-B
Fri 11:02:20 PM 26.0800 -80.1020 80° East 173 199 1,800 982 Climbing FlightAware ADS-B
Fri 11:02:52 PM 26.0840 -80.0700 82° East 226 260 2,300 1,322 Climbing FlightAware ADS-B
Fri 11:03:19 PM 26.0820 -80.0350 94° East 258 297 3,100 2,400 Climbing FlightAware ADS-B
Fri 11:03:42 PM 26.0770 -80.0050 101° East 262 302 4,300 3,176 Climbing FlightAware ADS-B
Fri 11:04:10 PM 26.0700 -79.9680 102° East 269 310 5,800 3,000 Climbing FlightAware ADS-B
Fri 11:04:38 PM 26.0640 -79.9290 100° East 277 319 7,100 2,885 Climbing FlightAware ADS-B
Fri 11:05:02 PM 26.0590 -79.8950 99° East 281 323 8,300 2,760 Climbing FlightAware ADS-B
Fri 11:05:28 PM 26.0530 -79.8570 100° East 289 333 9,400 1,946 Climbing FlightAware ADS-B
Fri 11:06:16 PM 26.0410 -79.7850 100° East 322 371 10,700 1,500 Climbing FlightAware ADS-B
Fri 11:07:00 PM 26.0280 -79.7070 100° East 354 407 11,700 1,725 Climbing FlightAware ADS-B
Fri 11:07:36 PM 26.0180 -79.6440 100° East 360 414 13,000 2,148 Climbing FlightAware ADS-B
Fri 11:08:21 PM 26.0040 -79.5590 100° East 362 417 14,600 2,154 Climbing FlightAware ADS-B
Fri 11:08:54 PM 25.9940 -79.5010 101° East 365 420 15,800 2,028 Climbing FlightAware ADS-B
Fri 11:09:32 PM 25.9820 -79.4290 100° East 370 426 17,000 1,605 Climbing FlightAware ADS-B
Fri 11:10:20 PM 25.9510 -79.3440 112° Southeast 382 440 18,100 1,571 Climbing FlightAware ADS-B
Fri 11:10:56 PM 25.9160 -79.2850 123° Southeast 384 442 19,200 1,622 Climbing FlightAware ADS-B
Fri 11:11:34 PM 25.8790 -79.2240 124° Southeast 386 444 20,100 1,537 Climbing FlightAware ADS-B
Fri 11:12:18 PM 25.8340 -79.1490 124° Southeast 392 451 21,300 1,553 Climbing FlightAware ADS-B
Fri 11:12:59 PM 25.7930 -79.0800 123° Southeast 396 456 22,300 1,301 Climbing FlightAware ADS-B
Fri 11:13:41 PM 25.7500 -79.0080 124° Southeast 406 467 23,100 1,186 Climbing FlightAware ADS-B
Fri 11:14:25 PM 25.7020 -78.9280 124° Southeast 410 472 24,000 1,229 Climbing FlightAware ADS-B
Fri 11:15:04 PM 25.6620 -78.8610 124° Southeast 415 478 24,800 1,040 Climbing FlightAware ADS-B
Fri 11:15:40 PM 25.6230 -78.7960 124° Southeast 425 489 25,300 923 Climbing FlightAware ADS-B
Fri 11:16:22 PM 25.5780 -78.7200 123° Southeast 429 494 26,000 977 Climbing FlightAware ADS-B
Fri 11:17:06 PM 25.5280 -78.6380 124° Southeast 437 503 26,700 947 Climbing FlightAware ADS-B
Fri 11:17:38 PM 25.4920 -78.5770 123° Southeast 441 507 27,200 800 Climbing FlightAware ADS-B
Fri 11:18:21 PM 25.4420 -78.4950 124° Southeast 448 516 27,700 815 Climbing FlightAware ADS-B
Fri 11:18:59 PM 25.4010 -78.4270 124° Southeast 448 516 28,300 786 Climbing FlightAware ADS-B
Fri 11:19:45 PM 25.3470 -78.3370 124° Southeast 461 531 28,800 776 Climbing FlightAware ADS-B
Fri 11:20:24 PM 25.3000 -78.2600 124° Southeast 460 529 29,400 1,139 Climbing FlightAware ADS-B
Fri 11:21:04 PM 25.2530 -78.1820 124° Southeast 459 528 30,300 1,148 Climbing FlightAware ADS-B
Fri 11:22:19 PM 25.1650 -78.0380 124° Southeast 449 517 31,600 831 Climbing FlightAware ADS-B
Fri 11:23:14 PM 25.0990 -77.9300 124° Southeast 462 532 32,100 474 Climbing FlightAware ADS-B
Fri 11:24:13 PM 25.0400 -77.8310 123° Southeast 462 532 32,500 250 Climbing FlightAware ADS-B
Fri 11:24:50 PM 25.0030 -77.7690 123° Southeast 462 532 32,500  Level FlightAware ADS-B
Fri 11:25:38 PM 24.9560 -77.6880 123° Southeast 462 532 32,500  Level FlightAware ADS-B
Fri 11:26:14 PM 24.9200 -77.6280 123° Southeast 462 532 32,500 1,978 Level FlightAware ADS-B
Fri 11:27:09 PM 24.8210 -77.4770 126° Southeast 455 524 35,500 2,045 Climbing FlightAware ADS-B
Fri 11:27:42 PM 24.7920 -77.4290 124° Southeast 455 524 35,500  Level FlightAware ADS-B
Fri 11:28:30 PM 24.7440 -77.3510 124° Southeast 455 524 35,500  Level FlightAware ADS-B
Fri 11:29:06 PM 24.7080 -77.2920 124° Southeast 455 524 35,500  Level FlightAware ADS-B
Fri 11:29:54 PM 24.6600 -77.2140 124° Southeast 455 524 35,500  Level FlightAware ADS-B
Fri 11:30:31 PM 24.6230 -77.1530 124° Southeast 455 524 35,500  Level FlightAware ADS-B
Fri 11:31:19 PM 24.5750 -77.0750 124° Southeast 455 524 35,500  Level FlightAware ADS-B
Fri 11:31:55 PM 24.5390 -77.0160 124° Southeast 455 524 35,500  Level FlightAware ADS-B
Fri 11:32:31 PM 24.5030 -76.9580 124° Southeast 455 524 35,500  Level FlightAware ADS-B
Fri 11:33:19 PM 24.4550 -76.8790 124° Southeast 455 524 35,500  Level FlightAware ADS-B
Fri 11:33:56 PM 24.4180 -76.8190 124° Southeast 455 524 35,500  Level FlightAware ADS-B
Fri 11:34:44 PM 24.3700 -76.7410 124° Southeast 455 524 35,500  Level FlightAware ADS-B
Fri 11:35:20 PM 24.3340 -76.6820 124° Southeast 455 524 35,500  Level FlightAware ADS-B
Fri 11:36:08 PM 24.2860 -76.6040 124° Southeast 455 524 35,500  Level FlightAware ADS-B
Fri 11:36:44 PM 24.2490 -76.5460 125° Southeast 455 524 35,500 849 Level FlightAware ADS-B
Fri 11:37:54 PM 24.0769 -76.2897 125° Southeast 443 510 37,000 698 Climbing Miami Center
Fri 11:38:53 PM 24.0075 -76.1764 124° Southeast 448 516 37,000  Level Miami Center
Fri 11:39:52 PM 23.9358 -76.0653 125° Southeast 448 516 37,000  Level Miami Center
Fri 11:40:53 PM 23.8664 -75.9500 123° Southeast 448 516 37,000  Level Miami Center
Fri 11:41:52 PM 23.7967 -75.8392 124° Southeast 448 516 37,000  Level Miami Center
Fri 11:42:52 PM 23.7333 -75.7397 125° Southeast 448 516 37,000  Level Miami Center
Fri 11:43:52 PM 23.6592 -75.6247 125° Southeast 448 516 37,000  Level Miami Center
Fri 11:44:52 PM 23.5872 -75.5122 125° Southeast 448 516 37,000  Level Miami Center
Fri 11:45:53 PM 23.5131 -75.3997 126° Southeast 448 516 37,000  Level Miami Center
Fri 11:46:53 PM 23.4408 -75.2894 126° Southeast 448 516 37,000  Level Miami Center
Fri 11:47:54 PM 23.3706 -75.1794 125° Southeast 448 516 37,000  Level Miami Center
Fri 11:48:53 PM 23.2983 -75.0672 125° Southeast 448 516 37,000  Level Miami Center
Fri 11:49:52 PM 23.2258 -74.9575 126° Southeast 448 516 37,000  Level Miami Center
Fri 11:50:53 PM 23.1514 -74.8458 126° Southeast 448 516 37,000  Level Miami Center
Fri 11:51:54 PM 23.0786 -74.7317 125° Southeast 448 516 37,000  Level Miami Center
Fri 11:52:52 PM 23.0061 -74.6200 125° Southeast 448 516 37,000  Level Miami Center
Fri 11:53:52 PM 22.9333 -74.5108 126° Southeast 448 516 37,000  Level Miami Center
Fri 11:54:53 PM 22.8606 -74.3994 125° Southeast 447 514 37,000  Level Miami Center
Fri 11:55:53 PM 22.7897 -74.2881 125° Southeast 447 514 37,000  Level Miami Center
Fri 11:56:52 PM 22.7147 -74.1769 126° Southeast 447 514 37,000  Level Miami Center
Fri 11:57:52 PM 22.6436 -74.0639 124° Southeast 447 514 37,000  Level Miami Center
Fri 11:58:54 PM 22.5686 -73.9531 126° Southeast 447 514 37,000  Level Miami Center
Fri 11:59:52 PM 22.4933 -73.8444 127° Southeast 447 514 37,000  Level Miami Center
Sat 12:00:53 AM 22.4200 -73.7339 126° Southeast 447 514 37,000  Level Miami Center
Sat 12:01:54 AM 22.3489 -73.6211 124° Southeast 447 514 37,000  Level Miami Center
Sat 12:02:52 AM 22.2647 -73.5042 128° Southeast 447 514 37,000  Level Miami Center
Sat 12:03:52 AM 22.2019 -73.4072 125° Southeast 447 514 37,000  Level Miami Center
Sat 12:04:53 AM 22.1306 -73.2969 125° Southeast 447 514 37,000  Level Miami Center
Sat 12:05:52 AM 22.0528 -73.1894 128° Southeast 447 514 37,000  Level Miami Center
Sat 12:06:54 AM 21.9792 -73.0794 126° Southeast 447 514 37,000  Level Miami Center
Sat 12:07:54 AM 21.9094 -72.9675 124° Southeast 447 514 37,000  Level Miami Center
Sat 12:08:52 AM 21.8336 -72.8600 127° Southeast 447 514 37,000  Level Miami Center
Sat 12:09:53 AM 21.7597 -72.7483 125° Southeast 447 514 37,000  Level Miami Center
Sat 12:10:53 AM 21.6858 -72.6389 126° Southeast 447 514 37,000  Level Miami Center
Sat 12:11:52 AM 21.6078 -72.5300 128° Southeast 447 514 37,000  Level Miami Center
Sat 12:12:53 AM 21.5356 -72.4186 125° Southeast 447 514 37,000  Level Miami Center
Sat 12:13:52 AM 21.4614 -72.3072 126° Southeast 447 514 37,000  Level Miami Center
Sat 12:14:52 AM 21.3831 -72.1964 127° Southeast 452 520 37,000  Level Miami Center
Sat 12:15:54 AM 21.3086 -72.0853 126° Southeast 452 520 37,000  Level Miami Center
Sat 12:16:54 AM 21.2319 -71.9722 126° Southeast 457 526 37,000  Level Miami Center
Sat 12:17:53 AM 21.1575 -71.8639 126° Southeast 457 526 37,000  Level Miami Center
Sat 12:18:53 AM 21.0789 -71.7533 127° Southeast 463 533 37,000  Level Miami Center
Sat 12:19:52 AM 21.0042 -71.6408 125° Southeast 463 533 37,000  Level Miami Center
Sat 12:20:54 AM 20.9253 -71.5306 127° Southeast 463 533 37,000  Level Miami Center
Sat 12:21:52 AM 20.8506 -71.4203 126° Southeast 463 533 37,000  Level Miami Center
Sat 12:22:52 AM 20.7717 -71.3083 127° Southeast 469 540 37,000  Level Miami Center
Sat 12:23:53 AM 20.6967 -71.1983 126° Southeast 469 540 37,000  Level Miami Center
Sat 12:24:52 AM 20.6217 -71.0883 126° Southeast 469 540 37,000  Level Miami Center
Sat 12:25:52 AM 20.5447 -70.9767 126° Southeast 469 540 37,000  Level Miami Center
Sat 12:26:53 AM 20.4594 -70.8742 132° Southeast 469 540 37,000  Level Miami Center
Sat 12:27:52 AM 20.3542 -70.7903 143° Southeast 469 540 37,000 -955 Level Miami Center
Sat 12:33:10 AM 19.7270 -70.4760 143° Southeast 472 543 31,000 -1,011 Descending FlightAware ADS-B
Sat 12:33:48 AM 19.6670 -70.4360 148° Southeast 472 543 31,000  Level FlightAware ADS-B
Sat 12:34:37 AM 19.5900 -70.3850 148° Southeast 472 543 31,000  Level FlightAware ADS-B
Sat 12:35:13 AM 19.5330 -70.3470 148° Southeast 472 543 31,000  Level FlightAware ADS-B
Sat 12:36:02 AM 19.4560 -70.2960 148° Southeast 472 543 31,000  Level FlightAware ADS-B
Sat 12:36:38 AM 19.3990 -70.2590 149° Southeast 472 543 31,000  Level FlightAware ADS-B
Sat 12:37:17 AM 19.3380 -70.2180 148° Southeast 472 543 31,000  Level FlightAware ADS-B
Sat 12:38:05 AM 19.2620 -70.1680 148° Southeast 472 543 31,000  Level FlightAware ADS-B
Sat 12:38:41 AM 19.2060 -70.1310 148° Southeast 472 543 31,000  Level FlightAware ADS-B
Sat 12:39:19 AM 19.1460 -70.0910 148° Southeast 472 543 31,000  Level FlightAware ADS-B
Sat 12:40:07 AM 19.0700 -70.0410 148° Southeast 472 543 31,000  Level FlightAware ADS-B
Sat 12:40:44 AM 19.0120 -70.0030 148° Southeast 472 543 31,000  Level FlightAware ADS-B
Sat 12:41:44 AM 18.9180 -69.9400 148° Southeast 472 543 31,000 -10,241 Level FlightAware ADS-B
Sat 12:42:40 AM 18.8150 -69.8820 152° Southeast 348 400 11,200 -11,829 Descending FlightAware ADS-B
Sat 12:43:29 AM 18.7550 -69.8450 150° Southeast 304 350 10,300 -1,545 Descending FlightAware ADS-B
Sat 12:43:46 AM 18.7310 -69.8300 149° Southeast 282 325 9,500 -1,000 Descending FlightAware ADS-B
Sat 12:44:47 AM 18.6730 -69.7920 148° Southeast 280 322 9,000 -423 Descending FlightAware ADS-B
Sat 12:44:57 AM 18.6640 -69.7850 144° Southeast 280 322 9,000  Level FlightAware ADS-B
Sat 12:45:24 AM 18.6390 -69.7690 149° Southeast 280 322 9,000  Level FlightAware ADS-B
Sat 12:46:01 AM 18.6040 -69.7460 148° Southeast 280 322 9,000  Level FlightAware ADS-B
Sat 12:48:00 AM 18.4297 -69.6689 159° South  Level Estimated
Sat 12:49:00 AM 18.4297 -69.6689 159° South  Level Estimated
Sat 12:50:00 AM 18.4297 -69.6689 159° South  Level Estimated
Sat 12:51:00 AM 18.4297 -69.6689 159° South  Level Estimated
Sat 12:52:00 AM 18.4297 -69.6689 159° South  Level Estimated
Sat 12:53:00 AM 18.4297 -69.6689 159° South  Level Estimated
Sat 12:54:00 AM 18.4297 -69.6689 159° South  Level Estimated
Sat 12:55:00 AM 18.4297 -69.6689 159° South  Level Estimated
Sat 12:56:00 AM 18.4297 -69.6689 159° South  Level Estimated
Sat 12:57:00 AM 18.4297 -69.6689 159° South  Level Estimated
Sat 12:58:00 AM 18.4297 -69.6689 159° South  Level Estimated
Sat 12:59:00 AM 18.4297 -69.6689 159° South  Level Estimated
Sat 01:00:00 AM 18.4297 -69.6689 159° South  Level Estimated
Sat 01:01:00 AM 18.4297 -69.6689 159° South  Level Estimated
Sat 01:02:00 AM 18.4297 -69.6689 159° South  Level Estimated
Sat 01:03:00 AM 18.4297 -69.6689 159° South  Level Estimated
Sat 01:04:00 AM 18.4297 -69.6689 159° South  Level Estimated
Sat 01:05:00 AM 18.4297 -69.6689 159° South  Level Estimated
Sat 01:06:00 AM 18.4297 -69.6689 159° South  Level Estimated
Sat 01:07:00 AM 18.4297 -69.6689 159° South  Level Estimated
Sat 01:08:00 AM 18.4297 -69.6689 159° South  Level Estimated

Login

Don't have an account? Register now (free) for customized features, flight alerts, and more!